APZ602 RCTP-RKSI
Flight info
| Callsign | APZ602 |
|---|---|
| Flight time | 1h 42m |
| Altitude | 39000 |
| Route | PIANO L3 SALMI B576 CJU Y722 OLMEN |
| Aircraft | B789/H-SDE1E2E3FGHIJ2J3J4J5M1RWXY/LB1D1 |
Departure
| Time | 2026-05-04 00:44 |
|---|---|
| Airport | Taiwan Taoyuan International Airport (RCTP) |
Arrival
| Time | 2026-05-04 02:27 |
|---|---|
| Airport | Incheon International Airport (RKSI) |
| Time | Latitude | Longitude | Altitude | Speed | Heading |
|---|---|---|---|---|---|
| 2026-05-04 00:25 | 25.07601 | 121.23437 | 106 ft | 0 kts | 319° |
| 2026-05-04 00:30 | 25.07601 | 121.23438 | 106 ft | 0 kts | 319° |
| 2026-05-04 00:33 | 25.07594 | 121.23444 | 105 ft | 2 kts | 319° |
| 2026-05-04 00:34 | 25.07584 | 121.23454 | 104 ft | 2 kts | 319° |
| 2026-05-04 00:34 | 25.07574 | 121.23464 | 103 ft | 2 kts | 319° |
| 2026-05-04 00:34 | 25.07563 | 121.23473 | 104 ft | 2 kts | 319° |
| 2026-05-04 00:34 | 25.07553 | 121.23483 | 104 ft | 2 kts | 319° |
| 2026-05-04 00:35 | 25.07543 | 121.23493 | 106 ft | 2 kts | 319° |
| 2026-05-04 00:35 | 25.07533 | 121.23503 | 104 ft | 2 kts | 311° |
| 2026-05-04 00:35 | 25.07527 | 121.23515 | 106 ft | 2 kts | 282° |
| 2026-05-04 00:35 | 25.07525 | 121.23530 | 106 ft | 2 kts | 273° |
| 2026-05-04 00:36 | 25.07526 | 121.23545 | 106 ft | 2 kts | 232° |
| 2026-05-04 00:36 | 25.07537 | 121.23553 | 103 ft | 2 kts | 210° |
| 2026-05-04 00:36 | 25.07547 | 121.23563 | 106 ft | 2 kts | 229° |
| 2026-05-04 00:38 | 25.07517 | 121.23525 | 106 ft | 12 kts | 228° |
| 2026-05-04 00:38 | 25.07444 | 121.23433 | 106 ft | 18 kts | 229° |
| 2026-05-04 00:38 | 25.07359 | 121.23325 | 105 ft | 19 kts | 229° |
| 2026-05-04 00:39 | 25.07269 | 121.23211 | 106 ft | 20 kts | 225° |
| 2026-05-04 00:39 | 25.07169 | 121.23208 | 106 ft | 13 kts | 172° |
| 2026-05-04 00:39 | 25.07097 | 121.23166 | 106 ft | 12 kts | 227° |
| 2026-05-04 00:39 | 25.07037 | 121.23090 | 106 ft | 14 kts | 229° |
| 2026-05-04 00:40 | 25.06971 | 121.23006 | 106 ft | 15 kts | 229° |
| 2026-05-04 00:40 | 25.06898 | 121.22914 | 106 ft | 17 kts | 229° |
| 2026-05-04 00:40 | 25.06818 | 121.22813 | 106 ft | 18 kts | 229° |
| 2026-05-04 00:40 | 25.06733 | 121.22705 | 106 ft | 19 kts | 229° |
| 2026-05-04 00:41 | 25.06641 | 121.22590 | 106 ft | 21 kts | 229° |
| 2026-05-04 00:41 | 25.06543 | 121.22467 | 107 ft | 22 kts | 229° |
| 2026-05-04 00:41 | 25.06442 | 121.22338 | 106 ft | 23 kts | 228° |
| 2026-05-04 00:41 | 25.06327 | 121.22255 | 106 ft | 19 kts | 190° |
| 2026-05-04 00:42 | 25.06193 | 121.22265 | 107 ft | 20 kts | 149° |
| 2026-05-04 00:42 | 25.06116 | 121.22383 | 102 ft | 18 kts | 86° |
| 2026-05-04 00:42 | 25.06160 | 121.22450 | 102 ft | 9 kts | 50° |
| 2026-05-04 00:42 | 25.06162 | 121.22453 | 103 ft | 0 kts | 51° |
| 2026-05-04 00:43 | 25.06163 | 121.22454 | 103 ft | 2 kts | 51° |
| 2026-05-04 00:43 | 25.06244 | 121.22562 | 103 ft | 39 kts | 49° |
| 2026-05-04 00:43 | 25.06592 | 121.23001 | 101 ft | 114 kts | 49° |
| 2026-05-04 00:44 | 25.07258 | 121.23844 | 307 ft | 164 kts | 54° |
| 2026-05-04 00:44 | 25.08034 | 121.24869 | 1140 ft | 183 kts | 51° |
| 2026-05-04 00:44 | 25.08944 | 121.25929 | 2167 ft | 192 kts | 47° |
| 2026-05-04 00:44 | 25.09877 | 121.27074 | 2932 ft | 214 kts | 54° |
| 2026-05-04 00:45 | 25.10917 | 121.28403 | 3578 ft | 244 kts | 36° |
| 2026-05-04 00:45 | 25.12547 | 121.29006 | 4876 ft | 256 kts | 17° |
| 2026-05-04 00:45 | 25.14414 | 121.29082 | 5758 ft | 280 kts | 0° |
| 2026-05-04 00:45 | 25.16406 | 121.28999 | 6751 ft | 293 kts | 354° |
| 2026-05-04 00:46 | 25.18439 | 121.28902 | 8004 ft | 292 kts | 353° |
| 2026-05-04 00:46 | 25.20485 | 121.28829 | 9311 ft | 296 kts | 352° |
| 2026-05-04 00:46 | 25.22567 | 121.28758 | 10517 ft | 308 kts | 351° |
| 2026-05-04 00:46 | 25.24824 | 121.28835 | 11265 ft | 346 kts | 8° |
| 2026-05-04 00:47 | 25.27133 | 121.29954 | 11943 ft | 383 kts | 32° |
| 2026-05-04 00:47 | 25.29256 | 121.31833 | 12934 ft | 395 kts | 38° |
| 2026-05-04 00:47 | 25.31308 | 121.33918 | 14069 ft | 407 kts | 40° |
| 2026-05-04 00:47 | 25.33453 | 121.36084 | 14610 ft | 429 kts | 38° |
| 2026-05-04 00:48 | 25.35788 | 121.38292 | 14845 ft | 456 kts | 37° |
| 2026-05-04 00:48 | 25.38246 | 121.40597 | 14959 ft | 482 kts | 38° |
| 2026-05-04 00:48 | 25.40775 | 121.43065 | 15723 ft | 485 kts | 39° |
| 2026-05-04 00:48 | 25.43315 | 121.45557 | 16459 ft | 490 kts | 38° |
| 2026-05-04 00:49 | 25.45898 | 121.48042 | 17176 ft | 495 kts | 38° |
| 2026-05-04 00:49 | 25.48514 | 121.50548 | 17842 ft | 499 kts | 38° |
| 2026-05-04 00:49 | 25.51144 | 121.53094 | 18485 ft | 504 kts | 38° |
| 2026-05-04 00:49 | 25.53786 | 121.55666 | 19026 ft | 508 kts | 38° |
| 2026-05-04 00:50 | 25.56456 | 121.58254 | 19541 ft | 512 kts | 38° |
| 2026-05-04 00:50 | 25.59150 | 121.60857 | 20028 ft | 516 kts | 38° |
| 2026-05-04 00:50 | 25.61871 | 121.63493 | 20518 ft | 520 kts | 38° |
| 2026-05-04 00:50 | 25.64605 | 121.66152 | 21003 ft | 524 kts | 38° |
| 2026-05-04 00:51 | 25.67357 | 121.68826 | 21484 ft | 528 kts | 38° |
| 2026-05-04 00:51 | 25.70138 | 121.71525 | 21940 ft | 532 kts | 38° |
| 2026-05-04 00:51 | 25.72930 | 121.74238 | 22387 ft | 536 kts | 38° |
| 2026-05-04 00:51 | 25.75740 | 121.76974 | 22798 ft | 540 kts | 38° |
| 2026-05-04 00:52 | 25.78539 | 121.79700 | 23211 ft | 543 kts | 38° |
| 2026-05-04 00:52 | 25.81466 | 121.82444 | 23570 ft | 544 kts | 33° |
| 2026-05-04 00:52 | 25.84539 | 121.84915 | 23879 ft | 547 kts | 32° |
| 2026-05-04 00:52 | 25.87591 | 121.87353 | 24206 ft | 549 kts | 32° |
| 2026-05-04 00:53 | 25.90692 | 121.89855 | 24529 ft | 553 kts | 32° |
| 2026-05-04 00:53 | 25.93799 | 121.92387 | 24852 ft | 555 kts | 32° |
| 2026-05-04 00:53 | 25.96925 | 121.94926 | 25163 ft | 558 kts | 32° |
| 2026-05-04 00:53 | 26.00068 | 121.97463 | 25481 ft | 561 kts | 32° |
| 2026-05-04 00:54 | 26.03242 | 122.00012 | 25751 ft | 563 kts | 31° |
| 2026-05-04 00:54 | 26.06476 | 122.02497 | 25979 ft | 567 kts | 31° |
| 2026-05-04 00:54 | 26.09676 | 122.05048 | 26433 ft | 566 kts | 32° |
| 2026-05-04 00:54 | 26.12888 | 122.07592 | 26861 ft | 565 kts | 31° |
| 2026-05-04 00:55 | 26.16114 | 122.10091 | 27307 ft | 565 kts | 31° |
| 2026-05-04 00:55 | 26.19342 | 122.12597 | 27773 ft | 565 kts | 31° |
| 2026-05-04 00:55 | 26.22548 | 122.15123 | 28257 ft | 565 kts | 32° |
| 2026-05-04 00:55 | 26.25753 | 122.17655 | 28736 ft | 564 kts | 32° |
| 2026-05-04 00:56 | 26.28959 | 122.20166 | 29260 ft | 563 kts | 31° |
| 2026-05-04 00:56 | 26.32176 | 122.22683 | 29782 ft | 563 kts | 32° |
| 2026-05-04 00:56 | 26.35370 | 122.25195 | 30286 ft | 562 kts | 32° |
| 2026-05-04 00:56 | 26.38561 | 122.27713 | 30712 ft | 562 kts | 31° |
| 2026-05-04 00:57 | 26.41758 | 122.30230 | 31132 ft | 562 kts | 31° |
| 2026-05-04 00:57 | 26.44949 | 122.32740 | 31565 ft | 561 kts | 31° |
| 2026-05-04 00:57 | 26.48097 | 122.35221 | 31998 ft | 561 kts | 31° |
| 2026-05-04 00:57 | 26.51288 | 122.37741 | 32436 ft | 560 kts | 31° |
| 2026-05-04 00:58 | 26.54473 | 122.40256 | 32876 ft | 559 kts | 31° |
| 2026-05-04 00:58 | 26.57646 | 122.42761 | 33320 ft | 559 kts | 31° |
| 2026-05-04 00:58 | 26.60820 | 122.45269 | 33770 ft | 558 kts | 30° |
| 2026-05-04 00:58 | 26.63984 | 122.47774 | 34207 ft | 557 kts | 30° |
| 2026-05-04 00:59 | 26.67145 | 122.50277 | 34602 ft | 556 kts | 30° |
| 2026-05-04 00:59 | 26.70299 | 122.52775 | 35015 ft | 554 kts | 30° |
| 2026-05-04 00:59 | 26.73440 | 122.55265 | 35433 ft | 553 kts | 29° |
| 2026-05-04 00:59 | 26.76574 | 122.57751 | 35833 ft | 551 kts | 29° |
| 2026-05-04 01:00 | 26.79701 | 122.60234 | 36231 ft | 550 kts | 29° |
| 2026-05-04 01:00 | 26.82785 | 122.62684 | 36618 ft | 548 kts | 28° |
| 2026-05-04 01:00 | 26.85889 | 122.65151 | 37010 ft | 547 kts | 28° |
| 2026-05-04 01:00 | 26.88989 | 122.67617 | 37384 ft | 546 kts | 28° |
| 2026-05-04 01:01 | 26.92091 | 122.70086 | 37750 ft | 545 kts | 28° |
| 2026-05-04 01:01 | 26.95175 | 122.72543 | 38112 ft | 544 kts | 27° |
| 2026-05-04 01:01 | 26.98255 | 122.74999 | 38491 ft | 542 kts | 27° |
| 2026-05-04 01:01 | 27.01323 | 122.77445 | 38839 ft | 541 kts | 27° |
| 2026-05-04 01:02 | 27.04389 | 122.79892 | 39121 ft | 540 kts | 27° |
| 2026-05-04 01:02 | 27.10543 | 122.84802 | 39148 ft | 551 kts | 27° |
| 2026-05-04 01:03 | 27.16844 | 122.89860 | 39161 ft | 562 kts | 27° |
| 2026-05-04 01:03 | 27.23206 | 122.95116 | 39187 ft | 575 kts | 34° |
| 2026-05-04 01:04 | 27.29271 | 123.01051 | 39167 ft | 580 kts | 36° |
| 2026-05-04 01:04 | 27.35188 | 123.07240 | 39170 ft | 584 kts | 39° |
| 2026-05-04 01:05 | 27.40817 | 123.13870 | 39169 ft | 584 kts | 38° |
| 2026-05-04 01:05 | 27.46641 | 123.20243 | 39171 ft | 583 kts | 38° |
| 2026-05-04 01:06 | 27.52286 | 123.26727 | 39165 ft | 583 kts | 39° |
| 2026-05-04 01:06 | 27.58032 | 123.33156 | 39169 ft | 583 kts | 38° |
| 2026-05-04 01:07 | 27.63755 | 123.39668 | 39171 ft | 585 kts | 39° |
| 2026-05-04 01:07 | 27.69501 | 123.46167 | 39174 ft | 585 kts | 38° |
| 2026-05-04 01:08 | 27.75240 | 123.52688 | 39174 ft | 586 kts | 39° |
| 2026-05-04 01:08 | 27.80981 | 123.59220 | 39175 ft | 585 kts | 38° |
| 2026-05-04 01:09 | 27.86730 | 123.65764 | 39175 ft | 586 kts | 39° |
| 2026-05-04 01:09 | 27.92472 | 123.72320 | 39174 ft | 587 kts | 39° |
| 2026-05-04 01:10 | 27.98218 | 123.78883 | 39173 ft | 587 kts | 39° |
| 2026-05-04 01:10 | 28.02990 | 123.84347 | 39177 ft | 587 kts | 39° |
| 2026-05-04 01:11 | 28.09668 | 123.92001 | 39175 ft | 587 kts | 39° |
| 2026-05-04 01:11 | 28.15414 | 123.98600 | 39172 ft | 589 kts | 39° |
| 2026-05-04 01:12 | 28.20233 | 124.04142 | 39172 ft | 589 kts | 39° |
| 2026-05-04 01:12 | 28.25985 | 124.10769 | 39173 ft | 590 kts | 39° |
| 2026-05-04 01:13 | 28.31744 | 124.17409 | 39173 ft | 591 kts | 39° |
| 2026-05-04 01:13 | 28.37505 | 124.24069 | 39176 ft | 591 kts | 39° |
| 2026-05-04 01:14 | 28.43235 | 124.30699 | 39177 ft | 591 kts | 39° |
| 2026-05-04 01:14 | 28.48991 | 124.37373 | 39176 ft | 591 kts | 39° |
| 2026-05-04 01:15 | 28.54754 | 124.44066 | 39175 ft | 592 kts | 39° |
| 2026-05-04 01:15 | 28.60507 | 124.50759 | 39177 ft | 591 kts | 39° |
| 2026-05-04 01:16 | 28.66193 | 124.57383 | 39170 ft | 592 kts | 39° |
| 2026-05-04 01:16 | 28.71947 | 124.64098 | 39169 ft | 592 kts | 39° |
| 2026-05-04 01:17 | 28.78144 | 124.69971 | 39187 ft | 574 kts | 21° |
| 2026-05-04 01:17 | 28.81666 | 124.72007 | 39184 ft | 562 kts | 12° |
| 2026-05-04 01:17 | 28.85316 | 124.73520 | 39159 ft | 558 kts | 10° |
| 2026-05-04 01:18 | 28.92655 | 124.76450 | 39169 ft | 559 kts | 9° |
| 2026-05-04 01:18 | 29.00007 | 124.79372 | 39166 ft | 560 kts | 9° |
| 2026-05-04 01:19 | 29.07368 | 124.82317 | 39167 ft | 561 kts | 9° |
| 2026-05-04 01:19 | 29.14742 | 124.85260 | 39167 ft | 561 kts | 9° |
| 2026-05-04 01:20 | 29.22109 | 124.88212 | 39165 ft | 562 kts | 9° |
| 2026-05-04 01:20 | 29.29492 | 124.91170 | 39163 ft | 563 kts | 9° |
| 2026-05-04 01:21 | 29.36901 | 124.94147 | 39161 ft | 564 kts | 10° |
| 2026-05-04 01:21 | 29.44321 | 124.97130 | 39162 ft | 565 kts | 10° |
| 2026-05-04 01:22 | 29.51719 | 125.00111 | 39166 ft | 566 kts | 10° |
| 2026-05-04 01:22 | 29.59147 | 125.03108 | 39164 ft | 566 kts | 10° |
| 2026-05-04 01:23 | 29.66584 | 125.06112 | 39158 ft | 567 kts | 10° |
| 2026-05-04 01:23 | 29.74033 | 125.09128 | 39159 ft | 568 kts | 10° |
| 2026-05-04 01:24 | 29.81494 | 125.12151 | 39155 ft | 569 kts | 10° |
| 2026-05-04 01:24 | 29.88960 | 125.15182 | 39159 ft | 570 kts | 10° |
| 2026-05-04 01:25 | 29.96401 | 125.18208 | 39157 ft | 571 kts | 10° |
| 2026-05-04 01:25 | 30.03909 | 125.21268 | 39156 ft | 572 kts | 10° |
| 2026-05-04 01:26 | 30.11409 | 125.24341 | 39157 ft | 572 kts | 10° |
| 2026-05-04 01:26 | 30.18913 | 125.27412 | 39157 ft | 572 kts | 9° |
| 2026-05-04 01:27 | 30.26430 | 125.30499 | 39156 ft | 573 kts | 9° |
| 2026-05-04 01:27 | 30.33961 | 125.33594 | 39157 ft | 574 kts | 9° |
| 2026-05-04 01:28 | 30.41506 | 125.36701 | 39156 ft | 575 kts | 9° |
| 2026-05-04 01:28 | 30.49049 | 125.39811 | 39155 ft | 576 kts | 9° |
| 2026-05-04 01:29 | 30.56563 | 125.42916 | 39159 ft | 576 kts | 9° |
| 2026-05-04 01:29 | 30.64119 | 125.46042 | 39155 ft | 577 kts | 9° |
| 2026-05-04 01:30 | 30.71688 | 125.49179 | 39159 ft | 578 kts | 9° |
| 2026-05-04 01:30 | 30.79268 | 125.52327 | 39161 ft | 578 kts | 9° |
| 2026-05-04 01:31 | 30.86832 | 125.55471 | 39153 ft | 579 kts | 9° |
| 2026-05-04 01:31 | 30.94440 | 125.58641 | 39150 ft | 579 kts | 9° |
| 2026-05-04 01:32 | 31.02029 | 125.61807 | 39157 ft | 580 kts | 9° |
| 2026-05-04 01:32 | 31.09628 | 125.64984 | 39160 ft | 581 kts | 9° |
| 2026-05-04 01:33 | 31.17209 | 125.68158 | 39157 ft | 581 kts | 9° |
| 2026-05-04 01:33 | 31.24837 | 125.71357 | 39163 ft | 582 kts | 9° |
| 2026-05-04 01:34 | 31.32454 | 125.74557 | 39151 ft | 582 kts | 9° |
| 2026-05-04 01:34 | 31.40082 | 125.77768 | 39152 ft | 583 kts | 9° |
| 2026-05-04 01:35 | 31.47713 | 125.80984 | 39154 ft | 583 kts | 9° |
| 2026-05-04 01:35 | 31.55358 | 125.84214 | 39146 ft | 584 kts | 9° |
| 2026-05-04 01:36 | 31.62997 | 125.87439 | 39147 ft | 583 kts | 9° |
| 2026-05-04 01:36 | 31.70647 | 125.90644 | 39151 ft | 584 kts | 9° |
| 2026-05-04 01:37 | 31.78286 | 125.93870 | 39145 ft | 583 kts | 9° |
| 2026-05-04 01:37 | 31.85930 | 125.97092 | 39143 ft | 583 kts | 9° |
| 2026-05-04 01:38 | 31.93559 | 126.00320 | 39140 ft | 583 kts | 9° |
| 2026-05-04 01:38 | 32.01152 | 126.03535 | 39143 ft | 583 kts | 9° |
| 2026-05-04 01:39 | 32.08781 | 126.06773 | 39138 ft | 582 kts | 9° |
| 2026-05-04 01:39 | 32.16403 | 126.09997 | 39140 ft | 581 kts | 9° |
| 2026-05-04 01:40 | 32.24012 | 126.13228 | 39139 ft | 581 kts | 9° |
| 2026-05-04 01:40 | 32.31623 | 126.16464 | 39128 ft | 581 kts | 9° |
| 2026-05-04 01:41 | 32.39233 | 126.19705 | 39128 ft | 581 kts | 9° |
| 2026-05-04 01:41 | 32.46847 | 126.22953 | 39124 ft | 581 kts | 9° |
| 2026-05-04 01:42 | 32.54459 | 126.26207 | 39133 ft | 582 kts | 9° |
| 2026-05-04 01:42 | 32.62025 | 126.29453 | 39129 ft | 581 kts | 9° |
| 2026-05-04 01:43 | 32.69638 | 126.32723 | 39126 ft | 582 kts | 9° |
| 2026-05-04 01:43 | 32.77251 | 126.36000 | 39124 ft | 582 kts | 9° |
| 2026-05-04 01:44 | 32.84866 | 126.39283 | 39120 ft | 582 kts | 9° |
| 2026-05-04 01:44 | 32.92489 | 126.42576 | 39114 ft | 582 kts | 9° |
| 2026-05-04 01:45 | 33.00105 | 126.45872 | 39119 ft | 582 kts | 9° |
| 2026-05-04 01:45 | 33.11535 | 126.50780 | 39121 ft | 581 kts | 8° |
| 2026-05-04 01:46 | 33.18944 | 126.53979 | 39115 ft | 581 kts | 9° |
| 2026-05-04 01:46 | 33.26553 | 126.57258 | 39117 ft | 581 kts | 8° |
| 2026-05-04 01:47 | 33.34148 | 126.60545 | 39114 ft | 580 kts | 8° |
| 2026-05-04 01:47 | 33.41702 | 126.63816 | 39109 ft | 580 kts | 9° |
| 2026-05-04 01:48 | 33.49294 | 126.67134 | 39113 ft | 581 kts | 9° |
| 2026-05-04 01:48 | 33.56929 | 126.69856 | 39122 ft | 559 kts | 355° |
| 2026-05-04 01:49 | 33.64560 | 126.70774 | 39107 ft | 549 kts | 352° |
| 2026-05-04 01:49 | 33.72174 | 126.71567 | 39107 ft | 548 kts | 352° |
| 2026-05-04 01:50 | 33.79791 | 126.72375 | 39106 ft | 548 kts | 352° |
| 2026-05-04 01:50 | 33.87392 | 126.73176 | 39103 ft | 548 kts | 352° |
| 2026-05-04 01:51 | 33.94982 | 126.73973 | 39099 ft | 547 kts | 352° |
| 2026-05-04 01:51 | 34.02558 | 126.74762 | 39088 ft | 546 kts | 352° |
| 2026-05-04 01:52 | 34.10114 | 126.75555 | 39089 ft | 545 kts | 352° |
| 2026-05-04 01:52 | 34.17667 | 126.76346 | 39079 ft | 544 kts | 352° |
| 2026-05-04 01:53 | 34.25203 | 126.77139 | 39078 ft | 543 kts | 352° |
| 2026-05-04 01:53 | 34.32728 | 126.77937 | 39074 ft | 542 kts | 352° |
| 2026-05-04 01:54 | 34.40238 | 126.78736 | 39071 ft | 542 kts | 352° |
| 2026-05-04 01:54 | 34.47749 | 126.79536 | 39059 ft | 541 kts | 352° |
| 2026-05-04 01:55 | 34.55205 | 126.80332 | 39061 ft | 541 kts | 352° |
| 2026-05-04 01:55 | 34.62739 | 126.81137 | 39061 ft | 540 kts | 352° |
| 2026-05-04 01:56 | 34.70181 | 126.81935 | 39053 ft | 539 kts | 352° |
| 2026-05-04 01:56 | 34.77674 | 126.82737 | 39053 ft | 540 kts | 352° |
| 2026-05-04 01:57 | 34.83887 | 126.83408 | 39057 ft | 538 kts | 352° |
| 2026-05-04 01:57 | 34.91357 | 126.84209 | 39054 ft | 539 kts | 353° |
| 2026-05-04 01:58 | 34.98820 | 126.85016 | 39054 ft | 538 kts | 353° |
| 2026-05-04 01:58 | 35.06269 | 126.85821 | 39052 ft | 538 kts | 353° |
| 2026-05-04 01:59 | 35.13731 | 126.86628 | 39050 ft | 537 kts | 353° |
| 2026-05-04 01:59 | 35.21163 | 126.87435 | 39050 ft | 535 kts | 353° |
| 2026-05-04 02:00 | 35.29783 | 126.88371 | 39050 ft | 534 kts | 353° |
| 2026-05-04 02:00 | 35.35986 | 126.89048 | 39043 ft | 534 kts | 353° |
| 2026-05-04 02:01 | 35.39674 | 126.89453 | 38816 ft | 529 kts | 353° |
| 2026-05-04 02:01 | 35.43302 | 126.89847 | 37928 ft | 530 kts | 352° |
| 2026-05-04 02:01 | 35.46985 | 126.90256 | 37271 ft | 516 kts | 352° |
| 2026-05-04 02:01 | 35.50495 | 126.90654 | 36648 ft | 499 kts | 351° |
| 2026-05-04 02:02 | 35.53911 | 126.91027 | 36027 ft | 484 kts | 350° |
| 2026-05-04 02:02 | 35.57181 | 126.91374 | 35445 ft | 471 kts | 349° |
| 2026-05-04 02:02 | 35.60415 | 126.91725 | 34872 ft | 460 kts | 349° |
| 2026-05-04 02:02 | 35.63567 | 126.92073 | 34317 ft | 452 kts | 348° |
| 2026-05-04 02:03 | 35.66737 | 126.92401 | 33739 ft | 465 kts | 348° |
| 2026-05-04 02:03 | 35.70062 | 126.92727 | 33147 ft | 491 kts | 350° |
| 2026-05-04 02:03 | 35.73528 | 126.93116 | 32550 ft | 505 kts | 352° |
| 2026-05-04 02:03 | 35.77012 | 126.93554 | 31936 ft | 498 kts | 353° |
| 2026-05-04 02:04 | 35.80430 | 126.93944 | 31334 ft | 489 kts | 352° |
| 2026-05-04 02:04 | 35.83803 | 126.94285 | 30742 ft | 482 kts | 352° |
| 2026-05-04 02:04 | 35.87126 | 126.94637 | 30168 ft | 477 kts | 354° |
| 2026-05-04 02:04 | 35.90410 | 126.95014 | 29554 ft | 469 kts | 354° |
| 2026-05-04 02:05 | 35.93636 | 126.95382 | 28992 ft | 460 kts | 354° |
| 2026-05-04 02:05 | 35.96760 | 126.95722 | 28445 ft | 452 kts | 355° |
| 2026-05-04 02:05 | 35.99897 | 126.96056 | 27914 ft | 454 kts | 355° |
| 2026-05-04 02:05 | 36.03052 | 126.96400 | 27369 ft | 454 kts | 356° |
| 2026-05-04 02:06 | 36.06173 | 126.96759 | 26825 ft | 445 kts | 356° |
| 2026-05-04 02:06 | 36.09221 | 126.97106 | 26301 ft | 434 kts | 356° |
| 2026-05-04 02:06 | 36.12195 | 126.97430 | 25793 ft | 425 kts | 357° |
| 2026-05-04 02:06 | 36.15112 | 126.97747 | 25292 ft | 418 kts | 357° |
| 2026-05-04 02:07 | 36.18012 | 126.98068 | 24801 ft | 415 kts | 358° |
| 2026-05-04 02:07 | 36.20873 | 126.98390 | 24317 ft | 410 kts | 358° |
| 2026-05-04 02:07 | 36.23671 | 126.98705 | 23847 ft | 399 kts | 358° |
| 2026-05-04 02:07 | 36.26372 | 126.99006 | 23347 ft | 390 kts | 358° |
| 2026-05-04 02:08 | 36.29093 | 126.99305 | 22880 ft | 386 kts | 358° |
| 2026-05-04 02:08 | 36.31744 | 126.99597 | 22444 ft | 389 kts | 359° |
| 2026-05-04 02:08 | 36.34437 | 126.99899 | 21999 ft | 387 kts | 359° |
| 2026-05-04 02:08 | 36.37080 | 127.00201 | 21544 ft | 376 kts | 359° |
| 2026-05-04 02:09 | 36.39663 | 127.00339 | 21116 ft | 370 kts | 352° |
| 2026-05-04 02:09 | 36.42254 | 127.00223 | 20679 ft | 374 kts | 353° |
| 2026-05-04 02:09 | 36.44831 | 127.00142 | 20261 ft | 365 kts | 353° |
| 2026-05-04 02:09 | 36.47355 | 127.00060 | 19834 ft | 362 kts | 353° |
| 2026-05-04 02:10 | 36.49887 | 126.99958 | 19418 ft | 366 kts | 353° |
| 2026-05-04 02:10 | 36.52421 | 126.99861 | 19001 ft | 359 kts | 353° |
| 2026-05-04 02:10 | 36.54891 | 126.99777 | 18590 ft | 354 kts | 353° |
| 2026-05-04 02:10 | 36.57358 | 126.99685 | 18171 ft | 356 kts | 353° |
| 2026-05-04 02:11 | 36.59843 | 126.99592 | 17741 ft | 358 kts | 354° |
| 2026-05-04 02:11 | 36.62332 | 126.99505 | 17340 ft | 357 kts | 353° |
| 2026-05-04 02:11 | 36.64777 | 126.99422 | 16936 ft | 348 kts | 354° |
| 2026-05-04 02:11 | 36.67209 | 126.99333 | 16542 ft | 353 kts | 354° |
| 2026-05-04 02:12 | 36.69679 | 126.99241 | 16149 ft | 356 kts | 354° |
| 2026-05-04 02:12 | 36.72123 | 126.99113 | 15741 ft | 344 kts | 350° |
| 2026-05-04 02:12 | 36.74464 | 126.98546 | 15358 ft | 345 kts | 342° |
| 2026-05-04 02:12 | 36.76729 | 126.97503 | 14964 ft | 347 kts | 335° |
| 2026-05-04 02:13 | 36.78948 | 126.96341 | 14560 ft | 341 kts | 335° |
| 2026-05-04 02:13 | 36.81125 | 126.95201 | 14072 ft | 342 kts | 335° |
| 2026-05-04 02:13 | 36.83284 | 126.94060 | 13626 ft | 330 kts | 335° |
| 2026-05-04 02:13 | 36.85337 | 126.92977 | 13235 ft | 305 kts | 335° |
| 2026-05-04 02:14 | 36.87192 | 126.92002 | 13039 ft | 280 kts | 335° |
| 2026-05-04 02:14 | 36.88954 | 126.91070 | 12736 ft | 270 kts | 335° |
| 2026-05-04 02:14 | 36.90651 | 126.90170 | 12443 ft | 260 kts | 335° |
| 2026-05-04 02:14 | 36.92294 | 126.89302 | 12154 ft | 254 kts | 335° |
| 2026-05-04 02:15 | 36.93919 | 126.88411 | 11855 ft | 255 kts | 330° |
| 2026-05-04 02:15 | 36.95467 | 126.87297 | 11537 ft | 257 kts | 329° |
| 2026-05-04 02:15 | 36.97024 | 126.86190 | 11197 ft | 257 kts | 329° |
| 2026-05-04 02:15 | 36.98578 | 126.85090 | 10853 ft | 256 kts | 329° |
| 2026-05-04 02:16 | 37.00126 | 126.83991 | 10522 ft | 255 kts | 329° |
| 2026-05-04 02:16 | 37.01667 | 126.82893 | 10184 ft | 255 kts | 329° |
| 2026-05-04 02:16 | 37.03206 | 126.81798 | 9859 ft | 254 kts | 329° |
| 2026-05-04 02:16 | 37.04734 | 126.80709 | 9518 ft | 252 kts | 329° |
| 2026-05-04 02:17 | 37.06256 | 126.79625 | 9193 ft | 251 kts | 329° |
| 2026-05-04 02:17 | 37.07772 | 126.78545 | 8856 ft | 251 kts | 329° |
| 2026-05-04 02:17 | 37.09281 | 126.77469 | 8533 ft | 250 kts | 329° |
| 2026-05-04 02:17 | 37.10788 | 126.76387 | 8135 ft | 248 kts | 327° |
| 2026-05-04 02:18 | 37.12113 | 126.74979 | 7448 ft | 252 kts | 315° |
| 2026-05-04 02:18 | 37.13332 | 126.73452 | 7000 ft | 248 kts | 316° |
| 2026-05-04 02:18 | 37.14572 | 126.72010 | 6699 ft | 238 kts | 318° |
| 2026-05-04 02:18 | 37.15797 | 126.70648 | 6439 ft | 228 kts | 319° |
| 2026-05-04 02:19 | 37.16969 | 126.69331 | 6204 ft | 231 kts | 318° |
| 2026-05-04 02:19 | 37.18161 | 126.67977 | 5960 ft | 230 kts | 318° |
| 2026-05-04 02:19 | 37.19350 | 126.66629 | 5720 ft | 228 kts | 318° |
| 2026-05-04 02:19 | 37.20313 | 126.65532 | 5515 ft | 228 kts | 318° |
| 2026-05-04 02:20 | 37.21354 | 126.64354 | 5334 ft | 230 kts | 318° |
| 2026-05-04 02:20 | 37.22542 | 126.63012 | 5090 ft | 226 kts | 318° |
| 2026-05-04 02:20 | 37.23790 | 126.61826 | 4799 ft | 227 kts | 326° |
| 2026-05-04 02:20 | 37.25076 | 126.60691 | 4618 ft | 224 kts | 324° |
| 2026-05-04 02:21 | 37.26328 | 126.59600 | 4371 ft | 212 kts | 324° |
| 2026-05-04 02:21 | 37.27508 | 126.58552 | 4078 ft | 203 kts | 324° |
| 2026-05-04 02:21 | 37.28647 | 126.57539 | 3799 ft | 198 kts | 324° |
| 2026-05-04 02:21 | 37.29749 | 126.56559 | 3529 ft | 190 kts | 324° |
| 2026-05-04 02:22 | 37.30759 | 126.55659 | 3279 ft | 171 kts | 324° |
| 2026-05-04 02:22 | 37.31736 | 126.54799 | 3049 ft | 170 kts | 325° |
| 2026-05-04 02:22 | 37.32688 | 126.53955 | 2820 ft | 165 kts | 324° |
| 2026-05-04 02:22 | 37.33591 | 126.53152 | 2588 ft | 151 kts | 324° |
| 2026-05-04 02:23 | 37.34427 | 126.52407 | 2403 ft | 145 kts | 324° |
| 2026-05-04 02:23 | 37.35220 | 126.51702 | 2200 ft | 130 kts | 324° |
| 2026-05-04 02:23 | 37.35945 | 126.51058 | 2037 ft | 125 kts | 323° |
| 2026-05-04 02:23 | 37.36651 | 126.50429 | 1874 ft | 124 kts | 323° |
| 2026-05-04 02:24 | 37.37360 | 126.49802 | 1716 ft | 125 kts | 324° |
| 2026-05-04 02:24 | 37.38078 | 126.49164 | 1528 ft | 127 kts | 324° |
| 2026-05-04 02:24 | 37.38798 | 126.48524 | 1364 ft | 126 kts | 324° |
| 2026-05-04 02:24 | 37.39527 | 126.47877 | 1187 ft | 130 kts | 323° |
| 2026-05-04 02:25 | 37.40266 | 126.47230 | 1028 ft | 130 kts | 324° |
| 2026-05-04 02:25 | 37.40997 | 126.46601 | 907 ft | 128 kts | 323° |
| 2026-05-04 02:25 | 37.41737 | 126.45952 | 708 ft | 131 kts | 322° |
| 2026-05-04 02:25 | 37.42489 | 126.45273 | 502 ft | 126 kts | 321° |
| 2026-05-04 02:26 | 37.43204 | 126.44635 | 311 ft | 127 kts | 322° |
| 2026-05-04 02:26 | 37.43932 | 126.43981 | 154 ft | 131 kts | 321° |
| 2026-05-04 02:26 | 37.44666 | 126.43321 | 44 ft | 124 kts | 322° |
| 2026-05-04 02:26 | 37.45240 | 126.42801 | 38 ft | 66 kts | 325° |
| 2026-05-04 02:27 | 37.45527 | 126.42548 | 38 ft | 45 kts | 326° |
| 2026-05-04 02:27 | 37.45775 | 126.42440 | 38 ft | 22 kts | 355° |
| 2026-05-04 02:27 | 37.45926 | 126.42420 | 38 ft | 21 kts | 350° |
| 2026-05-04 02:27 | 37.46040 | 126.42379 | 38 ft | 14 kts | 7° |
| 2026-05-04 02:28 | 37.46078 | 126.42409 | 37 ft | 0 kts | 52° |
| 2026-05-04 02:28 | 37.46083 | 126.42418 | 37 ft | 5 kts | 52° |
| 2026-05-04 02:28 | 37.46130 | 126.42497 | 38 ft | 17 kts | 54° |
| 2026-05-04 02:29 | 37.46201 | 126.42625 | 38 ft | 19 kts | 54° |
| 2026-05-04 02:29 | 37.46224 | 126.42666 | 38 ft | 0 kts | 54° |
| 2026-05-04 02:29 | 37.46234 | 126.42680 | 38 ft | 4 kts | 46° |
| 2026-05-04 02:29 | 37.46235 | 126.42681 | 38 ft | 0 kts | 44° |
| 2026-05-04 02:31 | 37.46256 | 126.42700 | 38 ft | 8 kts | 30° |
| 2026-05-04 02:31 | 37.46309 | 126.42732 | 38 ft | 9 kts | 33° |
| 2026-05-04 02:31 | 37.46354 | 126.42798 | 38 ft | 11 kts | 57° |
| 2026-05-04 02:31 | 37.46403 | 126.42886 | 38 ft | 13 kts | 54° |
| 2026-05-04 02:32 | 37.46426 | 126.42991 | 38 ft | 11 kts | 117° |
| 2026-05-04 02:32 | 37.46380 | 126.43032 | 38 ft | 11 kts | 154° |
| 2026-05-04 02:32 | 37.46305 | 126.43075 | 38 ft | 13 kts | 155° |
| 2026-05-04 02:32 | 37.46218 | 126.43124 | 38 ft | 15 kts | 156° |
| 2026-05-04 02:33 | 37.46125 | 126.43194 | 38 ft | 18 kts | 144° |
| 2026-05-04 02:33 | 37.46015 | 126.43292 | 35 ft | 20 kts | 144° |
| 2026-05-04 02:33 | 37.45897 | 126.43397 | 38 ft | 22 kts | 145° |
| 2026-05-04 02:33 | 37.45770 | 126.43509 | 38 ft | 23 kts | 145° |
| 2026-05-04 02:34 | 37.45636 | 126.43628 | 36 ft | 24 kts | 144° |
| 2026-05-04 02:34 | 37.45497 | 126.43753 | 38 ft | 25 kts | 144° |
| 2026-05-04 02:34 | 37.45401 | 126.43838 | 37 ft | 26 kts | 144° |
| 2026-05-04 02:34 | 37.45205 | 126.44014 | 37 ft | 21 kts | 137° |
| 2026-05-04 02:35 | 37.45152 | 126.44115 | 38 ft | 21 kts | 127° |
| 2026-05-04 02:35 | 37.45067 | 126.44242 | 38 ft | 16 kts | 85° |
| 2026-05-04 02:35 | 37.45121 | 126.44357 | 38 ft | 16 kts | 55° |
| 2026-05-04 02:35 | 37.45188 | 126.44476 | 38 ft | 17 kts | 54° |
| 2026-05-04 02:36 | 37.45262 | 126.44606 | 36 ft | 19 kts | 54° |
| 2026-05-04 02:36 | 37.45341 | 126.44746 | 38 ft | 20 kts | 54° |
| 2026-05-04 02:36 | 37.45421 | 126.44887 | 38 ft | 12 kts | 60° |
| 2026-05-04 02:36 | 37.45423 | 126.44933 | 38 ft | 3 kts | 114° |
| 2026-05-04 02:37 | 37.45410 | 126.44962 | 37 ft | 4 kts | 131° |
| 2026-05-04 02:37 | 37.45390 | 126.44993 | 36 ft | 5 kts | 126° |
| 2026-05-04 02:37 | 37.45383 | 126.45006 | 38 ft | 1 kts | 127° |
| 2026-05-04 02:37 | 37.45382 | 126.45008 | 38 ft | 0 kts | 127° |
| 2026-05-04 02:38 | 37.45382 | 126.45007 | 38 ft | 0 kts | 127° |